createdAt,value
2023-09-13T00:02:21.663Z,36.50
2023-09-13T00:04:48.142Z,34.55
2023-09-13T00:07:14.586Z,36.22
2023-09-13T00:09:42.337Z,36.60
2023-09-13T00:12:09.553Z,38.67
2023-09-13T00:14:36.051Z,36.70
2023-09-13T00:17:02.421Z,37.22
2023-09-13T00:19:28.909Z,39.40
2023-09-13T00:21:55.439Z,38.38
2023-09-13T00:24:21.767Z,42.55
2023-09-13T00:26:48.747Z,40.60
2023-09-13T00:29:15.923Z,42.63
2023-09-13T00:31:42.408Z,43.20
2023-09-13T00:34:09.144Z,45.75
2023-09-13T00:36:35.552Z,45.33
2023-09-13T00:39:04.025Z,47.47
2023-09-13T00:41:31.644Z,47.55
2023-09-13T00:43:58.034Z,47.40
2023-09-13T00:46:24.630Z,46.60
2023-09-13T00:48:51.102Z,47.65
2023-09-13T00:51:17.462Z,47.35
2023-09-13T00:53:44.129Z,47.17
2023-09-13T00:56:12.721Z,47.50
2023-09-13T00:58:39.233Z,48.17
2023-09-13T01:01:06.411Z,43.70
2023-09-13T01:03:32.974Z,48.83
2023-09-13T01:05:59.755Z,49.15
2023-09-13T01:08:26.738Z,48.35
2023-09-13T01:10:53.050Z,48.40
2023-09-13T01:13:20.015Z,49.15
2023-09-13T01:16:10.367Z,47.55
2023-09-13T01:18:39.304Z,48.00
2023-09-13T01:21:33.505Z,47.13
2023-09-13T01:24:06.155Z,47.35
2023-09-13T01:26:38.568Z,48.75
2023-09-13T01:29:06.114Z,48.72
2023-09-13T01:31:33.097Z,48.38
2023-09-13T01:33:59.588Z,46.50
2023-09-13T01:36:25.992Z,48.30
2023-09-13T01:38:52.345Z,47.47
2023-09-13T01:41:21.418Z,44.42
2023-09-13T01:43:51.687Z,46.60
2023-09-13T01:46:18.125Z,44.72
2023-09-13T01:48:54.818Z,47.30
2023-09-13T01:51:21.294Z,43.83
2023-09-13T01:53:47.655Z,42.10
2023-09-13T01:56:14.146Z,42.30
2023-09-13T01:58:40.488Z,39.92
2023-09-13T02:01:06.925Z,41.83
2023-09-13T02:03:33.293Z,40.17
2023-09-13T02:05:59.604Z,39.80
2023-09-13T02:08:25.922Z,40.13
2023-09-13T02:10:52.185Z,42.35
2023-09-13T02:13:18.713Z,38.28
2023-09-13T02:15:45.098Z,38.17
2023-09-13T02:18:11.563Z,35.03
2023-09-13T02:20:37.889Z,38.10
2023-09-13T02:23:04.378Z,34.20
2023-09-13T02:25:35.661Z,35.63
2023-09-13T02:28:02.046Z,35.70
2023-09-13T02:30:28.454Z,35.35
2023-09-13T02:32:54.774Z,34.80
2023-09-13T02:35:21.374Z,33.47
2023-09-13T02:37:49.010Z,31.75
2023-09-13T02:40:15.893Z,32.65
2023-09-13T02:42:42.361Z,32.83
2023-09-13T02:45:09.141Z,32.53
2023-09-13T02:47:35.490Z,31.77
2023-09-13T02:50:02.176Z,33.00
2023-09-13T02:52:34.094Z,31.48
2023-09-13T02:55:01.320Z,29.25
2023-09-13T02:57:27.907Z,29.52
2023-09-13T02:59:54.424Z,30.95
2023-09-13T03:02:21.787Z,31.85
2023-09-13T03:04:52.368Z,32.00
2023-09-13T03:07:19.201Z,31.70
2023-09-13T03:09:46.669Z,34.75
2023-09-13T03:12:13.645Z,31.17
2023-09-13T03:14:39.967Z,30.95
2023-09-13T03:17:06.291Z,32.78
2023-09-13T03:19:32.703Z,33.38
2023-09-13T03:21:59.561Z,32.95
2023-09-13T03:24:25.927Z,30.35
2023-09-13T03:26:52.363Z,30.92
2023-09-13T03:29:18.665Z,30.65
2023-09-13T03:31:45.463Z,29.08
2023-09-13T03:34:11.920Z,28.08
2023-09-13T03:36:38.288Z,27.83
2023-09-13T03:39:05.332Z,27.80
2023-09-13T03:41:31.973Z,28.08
2023-09-13T03:43:58.340Z,27.35
2023-09-13T03:46:25.005Z,28.25
2023-09-13T03:48:51.481Z,28.42
2023-09-13T03:51:17.949Z,28.33
2023-09-13T03:53:44.529Z,26.35
2023-09-13T03:56:11.023Z,26.33
2023-09-13T03:58:37.348Z,26.65
2023-09-13T04:01:04.293Z,26.88
2023-09-13T04:03:31.269Z,27.83
2023-09-13T04:05:57.832Z,27.73
2023-09-13T04:08:24.483Z,28.33
2023-09-13T04:10:51.487Z,25.73
2023-09-13T04:13:17.976Z,26.08
2023-09-13T04:15:46.000Z,26.65
2023-09-13T04:18:12.783Z,27.75
2023-09-13T04:20:39.516Z,26.83
2023-09-13T04:23:05.909Z,27.02
2023-09-13T04:25:32.258Z,26.58
2023-09-13T04:27:58.633Z,25.83
2023-09-13T04:30:25.026Z,26.30
2023-09-13T04:32:51.438Z,27.85
2023-09-13T04:35:18.546Z,27.67
2023-09-13T04:37:44.941Z,28.85
2023-09-13T04:40:11.377Z,27.52
2023-09-13T04:42:48.552Z,27.02
2023-09-13T04:45:14.895Z,28.90
2023-09-13T04:47:41.480Z,28.88
2023-09-13T04:50:09.427Z,29.15
2023-09-13T04:52:37.780Z,29.33
2023-09-13T04:55:06.302Z,32.55
2023-09-13T04:57:32.691Z,33.67
2023-09-13T04:59:59.105Z,36.97
2023-09-13T05:02:25.907Z,35.00
2023-09-13T05:04:52.367Z,36.88
2023-09-13T05:07:18.776Z,38.28
2023-09-13T05:09:45.171Z,40.38
2023-09-13T05:12:11.470Z,44.58
2023-09-13T05:14:38.382Z,45.22
2023-09-13T05:17:04.953Z,46.30
2023-09-13T05:19:31.878Z,49.22
2023-09-13T05:21:58.335Z,49.85
2023-09-13T05:24:24.682Z,49.95
2023-09-13T05:26:51.881Z,55.75
2023-09-13T05:29:18.247Z,53.38
2023-09-13T05:31:44.738Z,57.47
2023-09-13T05:34:11.262Z,55.40
2023-09-13T05:36:37.747Z,57.42
2023-09-13T05:39:04.617Z,58.40
2023-09-13T05:41:31.100Z,55.22
2023-09-13T05:43:57.523Z,53.72
2023-09-13T05:46:23.905Z,53.75
2023-09-13T05:48:50.386Z,53.17
2023-09-13T05:51:17.701Z,48.85
2023-09-13T05:53:44.200Z,54.25
2023-09-13T05:56:11.232Z,54.05
2023-09-13T05:58:38.019Z,53.88
2023-09-13T06:01:04.407Z,51.65
2023-09-13T06:03:33.342Z,50.72
2023-09-13T06:05:59.857Z,51.47
2023-09-13T06:08:26.204Z,53.00
2023-09-13T06:10:52.512Z,48.55
2023-09-13T06:13:18.879Z,47.85
2023-09-13T06:15:45.294Z,47.67
2023-09-13T06:18:11.797Z,45.53
2023-09-13T06:20:38.627Z,46.28
2023-09-13T06:23:05.080Z,47.70
2023-09-13T06:25:31.449Z,48.55
2023-09-13T06:27:57.928Z,45.72
2023-09-13T06:30:24.455Z,47.30
2023-09-13T06:33:07.771Z,44.90
2023-09-13T06:35:38.587Z,46.13
2023-09-13T06:38:06.286Z,41.83
2023-09-13T06:40:36.337Z,42.58
2023-09-13T06:43:03.501Z,43.13
2023-09-13T06:45:31.246Z,42.08
2023-09-13T06:47:58.949Z,41.35
2023-09-13T06:50:52.910Z,40.55
2023-09-13T06:53:30.495Z,44.13
2023-09-13T06:56:01.381Z,42.55
2023-09-13T06:58:29.886Z,43.17
2023-09-13T07:01:25.424Z,42.53
2023-09-13T07:03:47.121Z,44.25
2023-09-13T07:06:17.208Z,41.25
2023-09-13T07:08:44.117Z,43.30
2023-09-13T07:11:10.874Z,43.10
2023-09-13T07:13:37.283Z,41.90
2023-09-13T07:16:03.647Z,40.45
2023-09-13T07:18:30.081Z,41.53
2023-09-13T07:20:57.772Z,41.05
2023-09-13T07:23:24.141Z,40.72
2023-09-13T07:25:50.536Z,41.08
2023-09-13T07:28:16.991Z,42.53
2023-09-13T07:30:43.330Z,38.67
2023-09-13T07:33:09.777Z,40.72
2023-09-13T07:35:36.192Z,40.53
2023-09-13T07:38:02.619Z,39.00
2023-09-13T07:40:28.928Z,40.67
2023-09-13T07:42:55.415Z,37.63
2023-09-13T07:45:21.811Z,39.33
2023-09-13T07:47:48.226Z,39.63
2023-09-13T07:50:31.247Z,40.20
2023-09-13T07:53:05.219Z,38.10
2023-09-13T07:55:32.370Z,39.20
2023-09-13T07:57:58.794Z,40.92
2023-09-13T08:00:26.800Z,39.55
2023-09-13T08:02:53.458Z,37.80
2023-09-13T08:05:19.890Z,38.03
2023-09-13T08:07:46.543Z,41.63
2023-09-13T08:10:13.457Z,39.20
2023-09-13T08:12:39.974Z,38.28
2023-09-13T08:15:06.526Z,38.65
2023-09-13T08:17:36.996Z,38.08
2023-09-13T08:20:06.369Z,40.35
2023-09-13T08:22:39.833Z,39.15
2023-09-13T08:25:12.601Z,37.10
2023-09-13T08:27:39.427Z,34.67
2023-09-13T08:30:06.510Z,34.65
2023-09-13T08:32:32.859Z,35.17
2023-09-13T08:34:59.308Z,36.83
2023-09-13T08:37:26.817Z,35.35
2023-09-13T08:39:54.704Z,34.55
2023-09-13T08:42:21.182Z,31.25
2023-09-13T08:44:47.802Z,32.83
2023-09-13T08:47:15.083Z,31.25
2023-09-13T08:49:42.340Z,29.17
2023-09-13T08:52:09.062Z,29.25
2023-09-13T08:54:51.687Z,28.85
2023-09-13T08:57:23.519Z,30.42
2023-09-13T08:59:49.917Z,29.55
2023-09-13T09:02:18.781Z,29.33
2023-09-13T09:04:46.166Z,29.85
2023-09-13T09:07:13.072Z,26.70
2023-09-13T09:09:39.833Z,27.88
2023-09-13T09:12:06.958Z,26.40
2023-09-13T09:14:34.007Z,27.08
2023-09-13T09:17:02.130Z,27.35
2023-09-13T09:19:29.532Z,22.35
2023-09-13T09:21:56.608Z,13.73
2023-09-13T09:24:22.916Z,9.25
2023-09-13T09:26:49.256Z,8.02
2023-09-13T09:29:19.648Z,6.13
2023-09-13T09:31:46.445Z,6.70
2023-09-13T09:34:15.589Z,5.00
2023-09-13T09:36:45.753Z,6.13
2023-09-13T09:39:12.152Z,4.22
2023-09-13T09:41:39.438Z,4.20
2023-09-13T09:44:06.533Z,4.13
2023-09-13T09:46:33.660Z,4.05
2023-09-13T09:49:00.995Z,4.05
2023-09-13T09:51:27.747Z,4.07
2023-09-13T09:53:54.747Z,5.50
2023-09-13T09:56:21.294Z,3.85
2023-09-13T09:58:49.266Z,3.72
2023-09-13T10:01:18.095Z,4.40
2023-09-13T10:03:45.217Z,4.50
2023-09-13T10:06:12.835Z,4.88
2023-09-13T10:08:47.311Z,4.25
2023-09-13T10:11:15.518Z,4.45
2023-09-13T10:13:42.354Z,4.18
2023-09-13T10:16:09.700Z,4.13
2023-09-13T10:18:44.173Z,4.25
2023-09-13T10:21:11.148Z,3.95
2023-09-13T10:23:45.734Z,4.10
2023-09-13T10:26:14.641Z,3.17
2023-09-13T10:28:42.924Z,3.45
2023-09-13T10:31:13.556Z,3.85
2023-09-13T10:33:40.372Z,3.05
2023-09-13T10:36:08.713Z,2.60
2023-09-13T10:38:38.577Z,2.67
2023-09-13T10:41:08.049Z,3.33
2023-09-13T10:43:35.903Z,2.92
2023-09-13T10:46:04.092Z,2.80
2023-09-13T10:48:31.784Z,2.63
2023-09-13T10:50:59.275Z,2.92
2023-09-13T10:53:26.790Z,2.80
2023-09-13T10:55:54.162Z,2.97
2023-09-13T10:58:22.117Z,2.65
2023-09-13T11:00:51.377Z,2.95
2023-09-13T11:03:18.725Z,2.65
2023-09-13T11:05:48.284Z,2.63
2023-09-13T11:08:31.064Z,2.85
2023-09-13T11:10:57.405Z,2.95
2023-09-13T11:13:31.566Z,2.90
2023-09-13T11:16:02.713Z,2.53
2023-09-13T11:18:29.286Z,2.97
2023-09-13T11:20:57.037Z,2.60
2023-09-13T11:23:33.551Z,2.55
2023-09-13T11:26:08.498Z,3.08
2023-09-13T11:28:38.993Z,2.92
2023-09-13T11:31:06.395Z,2.70
2023-09-13T11:33:38.378Z,2.78
2023-09-13T11:36:05.058Z,3.05
2023-09-13T11:38:31.591Z,2.97
2023-09-13T11:40:59.200Z,2.75
2023-09-13T11:43:34.291Z,3.63
2023-09-13T11:46:01.535Z,2.22
2023-09-13T11:48:30.386Z,2.22
2023-09-13T11:51:13.960Z,2.80
2023-09-13T11:53:49.795Z,3.15
2023-09-13T11:56:44.593Z,2.60
2023-09-13T11:59:13.711Z,2.90
2023-09-13T12:01:45.164Z,2.92
2023-09-13T12:04:47.345Z,3.17
2023-09-13T12:07:02.895Z,2.70
2023-09-13T12:09:31.516Z,3.20
2023-09-13T12:12:05.727Z,2.97
2023-09-13T12:14:56.970Z,2.80
2023-09-13T12:17:20.469Z,2.70
2023-09-13T12:19:48.130Z,2.72
2023-09-13T12:22:15.591Z,2.47
2023-09-13T12:24:49.951Z,2.50
2023-09-13T12:27:16.359Z,2.95
2023-09-13T12:29:47.528Z,2.50
2023-09-13T12:32:14.685Z,2.50
2023-09-13T12:34:41.216Z,3.20
2023-09-13T12:37:07.605Z,3.17
2023-09-13T12:39:34.225Z,3.28
2023-09-13T12:42:05.489Z,2.90
2023-09-13T12:44:31.796Z,2.60
2023-09-13T12:46:58.186Z,3.13
2023-09-13T12:49:25.688Z,2.92
2023-09-13T12:51:52.663Z,2.75
2023-09-13T12:54:19.133Z,2.90
2023-09-13T12:56:45.572Z,2.95
2023-09-13T12:59:11.937Z,2.72
2023-09-13T13:01:38.393Z,2.72
2023-09-13T13:04:08.362Z,2.42
2023-09-13T13:06:53.609Z,2.60
2023-09-13T13:09:22.861Z,2.55
2023-09-13T13:11:50.544Z,2.72
2023-09-13T13:14:20.424Z,2.30
2023-09-13T13:16:57.364Z,2.37
2023-09-13T13:22:10.830Z,2.40
2023-09-13T13:24:39.666Z,2.60
2023-09-13T13:27:06.161Z,3.22
2023-09-13T13:29:34.535Z,2.40
2023-09-13T13:32:01.011Z,2.13
2023-09-13T13:34:27.379Z,2.38
2023-09-13T13:36:53.779Z,2.30
2023-09-13T13:39:20.143Z,2.15
2023-09-13T13:41:46.681Z,2.10
2023-09-13T13:44:13.252Z,2.28
2023-09-13T13:46:39.755Z,2.03
2023-09-13T13:49:06.567Z,1.90
2023-09-13T13:51:34.253Z,1.80
2023-09-13T13:54:01.179Z,1.73
2023-09-13T13:56:28.086Z,1.98
2023-09-13T13:58:55.086Z,2.15
2023-09-13T14:01:21.458Z,2.17
2023-09-13T14:03:48.284Z,2.70
2023-09-13T14:06:15.005Z,2.40
2023-09-13T14:08:41.346Z,2.50
2023-09-13T14:14:29.920Z,2.75
2023-09-13T14:16:56.338Z,2.65
2023-09-13T14:19:22.782Z,2.65
2023-09-13T14:21:49.192Z,2.80
2023-09-13T14:24:15.656Z,2.70
2023-09-13T14:26:42.977Z,2.38
2023-09-13T14:29:09.509Z,2.50
2023-09-13T14:31:38.592Z,2.58
2023-09-13T14:34:07.148Z,2.28
2023-09-13T14:36:33.489Z,2.30
2023-09-13T14:38:59.933Z,2.75
2023-09-13T14:41:26.473Z,2.90
2023-09-13T14:43:53.359Z,2.60
2023-09-13T14:46:19.781Z,2.40
2023-09-13T14:48:47.548Z,2.40
2023-09-13T14:51:14.284Z,2.58
2023-09-13T14:53:40.635Z,2.40
2023-09-13T14:56:06.936Z,2.42
2023-09-13T14:58:33.394Z,2.17
2023-09-13T15:00:59.779Z,2.30
2023-09-13T15:03:26.225Z,1.92
2023-09-13T15:05:52.664Z,2.42
2023-09-13T15:08:18.991Z,2.10
2023-09-13T15:10:45.365Z,2.20
2023-09-13T15:13:11.898Z,2.17
2023-09-13T15:15:39.309Z,2.00
2023-09-13T15:18:05.673Z,2.00
2023-09-13T15:20:32.457Z,2.65
2023-09-13T15:22:58.779Z,2.40
2023-09-13T15:25:25.211Z,2.15
2023-09-13T15:27:51.595Z,2.17
2023-09-13T15:30:18.053Z,1.98
2023-09-13T15:32:45.962Z,2.10
2023-09-13T15:35:12.812Z,2.28
2023-09-13T15:37:39.252Z,1.92
2023-09-13T15:40:08.995Z,2.10
2023-09-13T15:42:35.618Z,2.25
2023-09-13T15:45:02.479Z,2.20
2023-09-13T15:47:28.916Z,2.25
2023-09-13T15:49:55.388Z,2.30
2023-09-13T15:52:21.713Z,2.60
2023-09-13T15:54:48.296Z,2.05
2023-09-13T15:57:17.907Z,2.30
2023-09-13T15:59:44.249Z,2.50
2023-09-13T16:02:12.089Z,2.38
2023-09-13T16:04:38.865Z,2.28
2023-09-13T16:07:05.234Z,2.60
2023-09-13T16:09:33.056Z,2.50
2023-09-13T16:11:59.459Z,2.63
2023-09-13T16:14:33.125Z,2.30
2023-09-13T16:16:59.725Z,2.92
2023-09-13T16:19:26.242Z,2.67
2023-09-13T16:21:52.578Z,3.08
2023-09-13T16:24:18.989Z,2.70
2023-09-13T16:26:45.576Z,3.20
2023-09-13T16:29:11.933Z,2.60
2023-09-13T16:31:38.361Z,2.50
2023-09-13T16:34:04.983Z,3.10
2023-09-13T16:36:31.371Z,2.97
2023-09-13T16:38:57.745Z,3.05
2023-09-13T16:41:24.224Z,2.63
2023-09-13T16:43:50.561Z,2.90
2023-09-13T16:46:16.913Z,3.13
2023-09-13T16:48:43.388Z,2.55
2023-09-13T16:51:09.748Z,2.78
2023-09-13T16:53:36.087Z,3.25
2023-09-13T16:56:03.166Z,2.88
2023-09-13T16:58:29.499Z,2.80
2023-09-13T17:00:58.015Z,2.92
2023-09-13T17:03:24.981Z,3.13
2023-09-13T17:05:51.605Z,2.83
2023-09-13T17:08:18.016Z,2.90
2023-09-13T17:10:44.487Z,2.70
2023-09-13T17:13:21.085Z,2.90
2023-09-13T17:15:47.575Z,2.70
2023-09-13T17:18:18.288Z,3.30
2023-09-13T17:23:11.017Z,3.00
2023-09-13T17:25:37.939Z,3.65
2023-09-13T17:28:04.518Z,2.92
2023-09-13T17:30:33.600Z,3.10
2023-09-13T17:33:00.607Z,3.05
2023-09-13T17:35:27.506Z,3.25
2023-09-13T17:37:55.695Z,3.38
2023-09-13T17:40:22.472Z,3.15
2023-09-13T17:42:48.912Z,3.30
2023-09-13T17:45:15.830Z,2.90
2023-09-13T17:47:43.523Z,3.17
2023-09-13T17:50:10.205Z,3.63
2023-09-13T17:52:36.556Z,3.50
2023-09-13T17:55:03.103Z,3.17
2023-09-13T17:57:29.454Z,2.95
2023-09-13T17:59:55.769Z,3.10
2023-09-13T18:02:22.114Z,3.47
2023-09-13T18:04:49.301Z,3.20
2023-09-13T18:07:16.449Z,3.45
2023-09-13T18:09:43.078Z,3.22
2023-09-13T18:12:11.075Z,2.63
2023-09-13T18:14:37.446Z,3.10
2023-09-13T18:17:04.702Z,2.88
2023-09-13T18:19:31.806Z,2.70
2023-09-13T18:21:58.322Z,2.60
2023-09-13T18:24:36.634Z,2.72
2023-09-13T18:27:05.034Z,2.60
2023-09-13T18:29:31.404Z,2.88
2023-09-13T18:31:58.357Z,2.55
2023-09-13T18:34:25.077Z,2.40
2023-09-13T18:36:51.450Z,3.00
2023-09-13T18:39:18.598Z,2.50
2023-09-13T18:41:44.930Z,2.63
2023-09-13T18:44:12.287Z,2.35
2023-09-13T18:46:38.690Z,2.60
2023-09-13T18:49:05.069Z,3.15
2023-09-13T18:51:31.954Z,2.20
2023-09-13T18:54:01.709Z,2.30
2023-09-13T18:56:28.585Z,3.00
2023-09-13T18:58:54.896Z,2.53
2023-09-13T19:01:21.491Z,2.60
2023-09-13T19:03:48.050Z,2.58
2023-09-13T19:06:14.477Z,2.40
2023-09-13T19:08:42.963Z,2.25
2023-09-13T19:11:10.290Z,2.70
2023-09-13T19:13:40.643Z,2.60
2023-09-13T19:16:08.003Z,3.50
2023-09-13T19:18:35.709Z,2.72
2023-09-13T19:21:02.479Z,2.42
2023-09-13T19:23:29.597Z,2.58
2023-09-13T19:25:56.840Z,2.70
2023-09-13T19:28:24.058Z,2.72
2023-09-13T19:30:51.525Z,3.42
2023-09-13T19:33:25.245Z,2.70
2023-09-13T19:35:58.775Z,2.85
2023-09-13T19:38:30.345Z,2.72
2023-09-13T19:41:12.081Z,2.42
2023-09-13T19:43:38.566Z,3.30
2023-09-13T19:46:05.315Z,3.22
2023-09-13T19:48:34.094Z,3.35
2023-09-13T19:51:11.236Z,3.28
2023-09-13T19:53:39.004Z,2.30
2023-09-13T19:56:07.558Z,2.72
2023-09-13T19:58:36.775Z,2.78
2023-09-13T20:01:15.918Z,2.78
2023-09-13T20:03:43.957Z,3.33
2023-09-13T20:06:11.477Z,2.38
2023-09-13T20:08:37.918Z,2.80
2023-09-13T20:11:04.407Z,3.65
2023-09-13T20:13:30.992Z,3.03
2023-09-13T20:15:57.520Z,2.67
2023-09-13T20:18:24.591Z,2.72
2023-09-13T20:20:54.612Z,2.95
2023-09-13T20:23:21.266Z,2.37
2023-09-13T20:25:49.027Z,3.05
2023-09-13T20:28:15.361Z,3.08
2023-09-13T20:30:41.833Z,3.67
2023-09-13T20:33:08.246Z,3.22
2023-09-13T20:35:34.568Z,3.88
2023-09-13T20:38:00.880Z,2.95
2023-09-13T20:40:27.215Z,3.10
2023-09-13T20:42:54.395Z,3.15
2023-09-13T20:45:20.860Z,4.00
2023-09-13T20:47:47.222Z,2.88
2023-09-13T20:50:13.625Z,3.13
2023-09-13T20:52:41.099Z,3.35
2023-09-13T20:55:07.495Z,3.13
2023-09-13T20:57:33.831Z,3.08
2023-09-13T21:00:00.216Z,3.88
2023-09-13T21:02:27.911Z,3.10
2023-09-13T21:04:56.594Z,3.13
2023-09-13T21:07:25.427Z,3.70
2023-09-13T21:09:51.860Z,2.70
2023-09-13T21:12:18.282Z,3.60
2023-09-13T21:14:44.709Z,3.55
2023-09-13T21:17:11.053Z,3.40
2023-09-13T21:19:37.393Z,3.47
2023-09-13T21:22:04.008Z,3.40
2023-09-13T21:24:32.497Z,3.63
2023-09-13T21:26:58.878Z,3.47
2023-09-13T21:29:25.228Z,3.33
2023-09-13T21:31:51.562Z,3.47
2023-09-13T21:34:17.886Z,3.33
2023-09-13T21:36:44.329Z,3.92
2023-09-13T21:39:11.647Z,3.70
2023-09-13T21:41:38.169Z,3.50
2023-09-13T21:44:04.607Z,4.30
2023-09-13T21:46:31.034Z,4.03
2023-09-13T21:48:57.433Z,3.33
2023-09-13T21:51:23.806Z,3.65
2023-09-13T21:53:50.233Z,3.60
2023-09-13T21:56:16.530Z,3.33
2023-09-13T21:58:43.094Z,3.53
2023-09-13T22:01:09.887Z,3.90
2023-09-13T22:03:36.555Z,3.90
2023-09-13T22:06:03.701Z,3.35
2023-09-13T22:08:31.006Z,4.20
2023-09-13T22:11:01.287Z,3.63
2023-09-13T22:13:27.639Z,3.85
2023-09-13T22:15:54.100Z,4.13
2023-09-13T22:18:20.582Z,3.80
2023-09-13T22:20:47.024Z,4.50
2023-09-13T22:23:13.499Z,4.20
2023-09-13T22:25:39.859Z,4.57
2023-09-13T22:28:06.418Z,3.78
2023-09-13T22:30:33.258Z,3.83
2023-09-13T22:32:59.672Z,3.80
2023-09-13T22:35:26.071Z,3.83
2023-09-13T22:37:52.424Z,3.70
2023-09-13T22:40:18.907Z,4.32
2023-09-13T22:42:45.826Z,3.90
2023-09-13T22:45:12.345Z,4.28
2023-09-13T22:47:38.772Z,4.05
2023-09-13T22:50:05.571Z,4.47
2023-09-13T22:52:31.933Z,3.67
2023-09-13T22:54:58.384Z,4.70
2023-09-13T22:57:24.822Z,4.45
2023-09-13T22:59:51.358Z,4.30
2023-09-13T23:02:17.840Z,4.30
2023-09-13T23:04:48.216Z,4.13
2023-09-13T23:07:16.236Z,4.07
2023-09-13T23:09:42.897Z,4.03
2023-09-13T23:12:09.310Z,4.53
2023-09-13T23:14:35.911Z,4.22
2023-09-13T23:17:02.334Z,4.72
2023-09-13T23:19:28.665Z,4.72
2023-09-13T23:21:55.089Z,4.72
2023-09-13T23:24:21.515Z,3.88
2023-09-13T23:26:47.826Z,4.38
2023-09-13T23:29:14.334Z,4.18
2023-09-13T23:31:41.362Z,3.60
2023-09-13T23:34:07.817Z,4.20
2023-09-13T23:36:34.931Z,4.72
2023-09-13T23:39:02.592Z,4.30
2023-09-13T23:41:31.033Z,4.10
2023-09-13T23:43:57.416Z,4.38
2023-09-13T23:46:23.905Z,4.50
2023-09-13T23:48:50.678Z,3.72
2023-09-13T23:51:17.144Z,4.25
2023-09-13T23:53:49.767Z,4.13
2023-09-13T23:56:17.593Z,5.82
2023-09-13T23:58:44.115Z,5.35
